createdAt,value
2022-11-02T00:08:00.448Z,78.07
2022-11-02T00:18:08.101Z,78.03
2022-11-02T00:28:11.383Z,77.97
2022-11-02T00:38:14.646Z,77.95
2022-11-02T00:48:17.839Z,77.94
2022-11-02T00:58:21.696Z,78.08
2022-11-02T01:08:26.248Z,78.17
2022-11-02T01:18:29.370Z,78.44
2022-11-02T01:28:33.204Z,78.73
2022-11-02T01:38:36.432Z,78.91
2022-11-02T01:48:51.234Z,78.75
2022-11-02T01:59:00.588Z,78.80
2022-11-02T02:09:06.405Z,78.63
2022-11-02T02:19:43.266Z,78.67
2022-11-02T02:30:07.753Z,78.58
2022-11-02T02:40:19.646Z,78.44
2022-11-02T02:50:27.910Z,78.34
2022-11-02T03:00:34.957Z,78.44
2022-11-02T03:10:59.395Z,78.42
2022-11-02T03:21:26.962Z,78.78
2022-11-02T03:31:42.913Z,79.03
2022-11-02T03:41:48.602Z,78.99
2022-11-02T03:51:54.078Z,78.63
2022-11-02T04:02:01.157Z,78.52
2022-11-02T04:12:24.215Z,78.28
2022-11-02T04:22:46.677Z,78.08
2022-11-02T04:33:10.435Z,78.10
2022-11-02T04:43:19.848Z,77.99
2022-11-02T04:53:24.338Z,77.92
2022-11-02T05:03:28.458Z,77.83
2022-11-02T05:13:32.217Z,77.57
2022-11-02T05:23:35.817Z,77.44
2022-11-02T05:33:40.433Z,77.21
2022-11-02T05:43:50.058Z,77.18
2022-11-02T05:53:53.575Z,77.10
2022-11-02T06:03:57.144Z,77.04
2022-11-02T06:14:00.901Z,77.07
2022-11-02T06:24:04.421Z,77.04
2022-11-02T06:34:07.855Z,76.88
2022-11-02T06:44:11.164Z,76.71
2022-11-02T06:54:14.935Z,76.33
2022-11-02T07:04:18.113Z,76.24
2022-11-02T07:14:21.352Z,76.34
2022-11-02T07:24:24.706Z,76.29
2022-11-02T07:34:27.908Z,76.04
2022-11-02T07:44:31.244Z,75.89
2022-11-02T07:54:34.583Z,75.45
2022-11-02T08:04:40.821Z,75.00
2022-11-02T08:14:47.488Z,74.32
2022-11-02T08:24:50.676Z,73.21
2022-11-02T08:34:53.940Z,72.08
2022-11-02T08:44:57.303Z,70.85
2022-11-02T08:55:00.547Z,69.46
2022-11-02T09:05:04.097Z,68.23
2022-11-02T09:15:08.224Z,67.56
2022-11-02T09:25:12.002Z,66.73
2022-11-02T09:35:15.232Z,66.20
2022-11-02T09:45:20.864Z,66.02
2022-11-02T09:55:30.716Z,65.63
2022-11-02T10:05:56.999Z,65.38
2022-11-02T10:16:19.463Z,65.39
2022-11-02T10:26:27.488Z,65.20
2022-11-02T10:36:49.238Z,65.00
2022-11-02T10:47:03.979Z,64.20
2022-11-02T10:57:24.286Z,63.72
2022-11-02T11:07:28.266Z,62.97
2022-11-02T11:28:29.250Z,60.97
2022-11-02T11:38:32.459Z,60.83
2022-11-02T11:48:55.457Z,60.45
2022-11-02T11:58:59.522Z,59.84
2022-11-02T12:09:18.082Z,59.57
2022-11-02T12:19:34.212Z,59.76
2022-11-02T12:29:56.853Z,59.73
2022-11-02T12:50:54.065Z,60.13
2022-11-02T13:01:12.396Z,60.86
2022-11-02T13:11:40.031Z,61.26
2022-11-02T13:21:49.866Z,61.73
2022-11-02T13:32:24.996Z,62.28
2022-11-02T13:42:52.834Z,63.28
2022-11-02T13:53:00.207Z,63.96
2022-11-02T14:03:12.525Z,64.67
2022-11-02T14:13:17.835Z,65.23
2022-11-02T14:23:33.940Z,65.28
2022-11-02T14:33:59.968Z,65.38
2022-11-02T14:44:27.907Z,65.44
2022-11-02T14:54:36.540Z,65.38
2022-11-02T15:04:52.203Z,65.48
2022-11-02T15:14:59.177Z,65.74
2022-11-02T15:25:26.868Z,66.15
2022-11-02T15:35:34.203Z,66.31
2022-11-02T15:46:10.103Z,66.63
2022-11-02T15:56:39.680Z,67.01
2022-11-02T16:06:44.570Z,67.05
2022-11-02T16:16:51.075Z,67.49
2022-11-02T16:26:54.587Z,67.97
2022-11-02T16:36:59.393Z,68.16
2022-11-02T16:47:08.465Z,68.09
2022-11-02T16:57:12.351Z,68.21
2022-11-02T17:07:30.132Z,68.32
2022-11-02T17:17:39.183Z,68.57
2022-11-02T17:27:42.990Z,68.82
2022-11-02T17:37:46.381Z,69.65
2022-11-02T17:47:50.025Z,70.27
2022-11-02T17:57:54.042Z,70.73
2022-11-02T18:07:59.001Z,70.96
2022-11-02T18:18:02.542Z,71.27
2022-11-02T18:28:06.650Z,71.40
2022-11-02T18:38:10.532Z,71.54
2022-11-02T18:48:13.913Z,71.66
2022-11-02T18:58:17.413Z,71.56
2022-11-02T19:08:39.119Z,71.53
2022-11-02T19:18:42.541Z,71.39
2022-11-02T19:28:45.888Z,71.23
2022-11-02T19:38:49.201Z,71.46
2022-11-02T19:48:53.253Z,71.73
2022-11-02T19:58:57.317Z,71.91
2022-11-02T20:09:04.730Z,72.01
2022-11-02T20:19:09.326Z,72.14
2022-11-02T20:29:15.488Z,72.13
2022-11-02T20:39:21.555Z,72.16
2022-11-02T20:49:54.499Z,72.11
2022-11-02T20:59:48.218Z,72.44
2022-11-02T21:09:51.708Z,72.28
2022-11-02T21:19:58.239Z,72.05
2022-11-02T21:30:11.983Z,72.34
2022-11-02T21:40:15.435Z,72.28
2022-11-02T21:50:18.792Z,72.27
2022-11-02T22:00:22.059Z,72.24
2022-11-02T22:10:25.317Z,72.42
2022-11-02T22:20:28.606Z,72.46
2022-11-02T22:30:34.282Z,72.47
2022-11-02T22:40:37.572Z,72.55
2022-11-02T22:50:40.854Z,72.62
2022-11-02T23:00:44.751Z,72.52
2022-11-02T23:11:16.403Z,72.87
2022-11-02T23:21:19.710Z,72.57
2022-11-02T23:31:43.365Z,72.58
2022-11-02T23:41:46.614Z,72.56
2022-11-02T23:52:08.638Z,72.44
